Time;durP1;ratioP1;P1;durP2;ratioP2;P2;SDS_P1;SDS_P2;PMS_P1;PMS_P2;Temp;Humidity;BMP_temperature;BMP_pressure;BME280_temperature;BME280_humidity;BME280_pressure;Samples;Min_cycle;Max_cycle;Signal;HPM_P1;HPM_P2
2022/09/01 00:00:12;;;;;;;4.88;2.60;;;25.00;51.70;;;;;;6015224;29;20353;-81
2022/09/01 00:03:13;;;;;;;4.50;2.45;;;24.80;51.80;;;;;;5995543;29;20083;-81
2022/09/01 00:06:21;;;;;;;4.45;2.55;;;24.80;52.00;;;;;;6028602;29;20137;-79
2022/09/01 00:09:22;;;;;;;3.95;2.00;;;24.70;52.10;;;;;;6014702;29;20038;-81
2022/09/01 00:12:24;;;;;;;5.57;2.30;;;24.70;52.10;;;;;;6013485;29;20065;-81
2022/09/01 00:15:25;;;;;;;3.97;2.53;;;24.70;52.20;;;;;;6000846;29;20080;-80
2022/09/01 00:18:26;;;;;;;7.65;3.00;;;24.60;52.20;;;;;;6013479;29;20093;-80
2022/09/01 00:21:33;;;;;;;8.55;2.53;;;24.60;52.30;;;;;;6015294;29;20034;-80
2022/09/01 00:24:34;;;;;;;5.00;2.00;;;24.60;52.40;;;;;;5999909;29;20065;-81
2022/09/01 00:27:35;;;;;;;5.40;2.22;;;24.50;52.50;;;;;;6003742;29;20042;-80
2022/09/01 00:30:36;;;;;;;2.97;2.08;;;24.50;52.60;;;;;;6009091;29;20144;-80
2022/09/01 00:33:37;;;;;;;5.88;2.22;;;24.50;52.60;;;;;;6009165;29;20052;-80
2022/09/01 00:36:38;;;;;;;5.15;2.05;;;24.40;52.60;;;;;;5997746;29;20382;-81
2022/09/01 00:39:39;;;;;;;4.10;2.40;;;24.40;52.70;;;;;;6012392;29;20070;-81
2022/09/01 00:42:40;;;;;;;4.18;2.58;;;24.40;52.70;;;;;;5994920;29;20109;-81
2022/09/01 00:45:42;;;;;;;3.83;2.50;;;24.40;52.80;;;;;;5994324;29;20086;-81
2022/09/01 00:48:43;;;;;;;4.05;2.28;;;24.40;52.80;;;;;;6009633;29;20034;-80
2022/09/01 00:51:48;;;;;;;5.32;2.15;;;24.40;53.40;;;;;;6009788;29;20041;-79
2022/09/01 00:54:56;;;;;;;4.55;2.58;;;24.40;53.10;;;;;;6010193;29;20038;-80
2022/09/01 00:57:59;;;;;;;5.65;2.42;;;24.40;53.00;;;;;;5996722;29;20521;-80
2022/09/01 01:01:00;;;;;;;4.63;2.45;;;24.40;53.10;;;;;;6013109;29;20549;-80
2022/09/01 01:04:05;;;;;;;3.03;2.20;;;24.30;53.10;;;;;;6009841;29;20109;-81
2022/09/01 01:07:08;;;;;;;3.28;1.92;;;24.30;53.30;;;;;;6009480;29;20050;-79
2022/09/01 01:10:13;;;;;;;4.00;2.42;;;24.30;53.40;;;;;;6010659;29;20133;-80
2022/09/01 01:13:16;;;;;;;3.17;1.98;;;24.20;53.60;;;;;;6015745;29;20053;-80
2022/09/01 01:16:18;;;;;;;6.78;1.92;;;24.20;53.70;;;;;;6001484;29;20046;-80
2022/09/01 01:23:01;;;;;;;5.47;2.40;;;24.00;53.90;;;;;;6008549;29;20046;-80
2022/09/01 01:26:05;;;;;;;7.10;2.22;;;24.00;53.90;;;;;;5996438;29;20052;-79
2022/09/01 01:29:08;;;;;;;2.92;2.25;;;24.00;53.90;;;;;;5993126;29;20038;-80
2022/09/01 01:32:11;;;;;;;12.18;2.70;;;24.00;53.90;;;;;;5997795;29;20038;-80
2022/09/01 01:35:15;;;;;;;5.57;2.33;;;24.00;53.90;;;;;;5976981;29;20045;-80
2022/09/01 01:38:19;;;;;;;3.75;2.25;;;24.00;53.90;;;;;;6007566;29;20129;-79
2022/09/01 01:41:20;;;;;;;2.92;2.45;;;24.00;53.90;;;;;;5996922;29;20178;-80
2022/09/01 01:44:26;;;;;;;11.93;1.95;;;24.00;53.80;;;;;;5991797;29;20038;-80
2022/09/01 01:47:29;;;;;;;2.60;2.00;;;24.00;53.70;;;;;;5962752;29;20106;-79
2022/09/01 01:50:34;;;;;;;5.32;2.38;;;24.00;53.80;;;;;;6006886;29;20456;-79
2022/09/01 01:53:37;;;;;;;7.63;2.42;;;24.00;54.00;;;;;;5989276;29;20061;-79
2022/09/01 01:56:40;;;;;;;7.05;2.40;;;24.00;54.10;;;;;;6003313;29;20101;-80
2022/09/01 01:59:42;;;;;;;11.00;2.28;;;24.00;54.20;;;;;;5977597;29;20038;-80
2022/09/01 02:02:46;;;;;;;4.10;2.13;;;23.90;54.20;;;;;;5990154;29;20026;-78
2022/09/01 02:05:49;;;;;;;4.20;2.20;;;23.90;54.40;;;;;;5978466;29;20112;-79
2022/09/01 02:08:56;;;;;;;4.00;2.38;;;23.90;54.60;;;;;;6002769;29;20117;-80
2022/09/01 02:11:57;;;;;;;4.40;2.90;;;23.90;54.70;;;;;;5981599;29;20083;-80
2022/09/01 02:14:59;;;;;;;3.75;2.53;;;23.80;54.80;;;;;;6016086;29;20086;-80
2022/09/01 02:18:00;;;;;;;6.50;2.50;;;23.80;55.00;;;;;;5984107;29;20460;-79
2022/09/01 02:21:08;;;;;;;2.85;2.20;;;23.70;55.10;;;;;;5981449;29;20094;-81
2022/09/01 02:24:10;;;;;;;3.60;2.30;;;23.70;55.20;;;;;;6009345;29;20062;-80
2022/09/01 02:27:14;;;;;;;5.20;2.25;;;23.60;55.30;;;;;;6013657;29;20087;-79
2022/09/01 02:30:16;;;;;;;6.93;2.38;;;23.50;55.50;;;;;;6014774;29;20034;-80
2022/09/01 02:33:18;;;;;;;4.80;2.78;;;23.40;55.60;;;;;;5998148;29;20050;-80
2022/09/01 02:36:23;;;;;;;4.05;2.72;;;23.40;55.70;;;;;;6022300;29;20106;-81
2022/09/01 02:39:28;;;;;;;3.63;2.42;;;23.40;55.70;;;;;;6015627;29;20042;-80
2022/09/01 02:42:29;;;;;;;14.35;2.60;;;23.30;55.90;;;;;;6024796;29;20133;-81
2022/09/01 02:45:31;;;;;;;3.40;2.72;;;23.30;55.80;;;;;;5994333;29;20045;-81
2022/09/01 02:48:36;;;;;;;4.35;2.28;;;23.40;55.90;;;;;;6003522;29;20130;-80
2022/09/01 02:51:38;;;;;;;4.10;3.00;;;23.40;56.00;;;;;;6019270;29;20030;-81
2022/09/01 02:54:39;;;;;;;4.88;2.95;;;23.40;55.90;;;;;;6000873;29;20911;-80
2022/09/01 02:57:40;;;;;;;3.90;2.90;;;23.40;55.90;;;;;;6017365;29;20119;-81
2022/09/01 03:00:44;;;;;;;4.35;2.30;;;23.40;56.00;;;;;;6017954;29;20042;-81
2022/09/01 03:03:47;;;;;;;4.53;2.50;;;23.40;56.00;;;;;;6016068;29;20379;-80
2022/09/01 03:06:51;;;;;;;5.20;2.40;;;23.40;56.10;;;;;;6006753;29;20038;-80
2022/09/01 03:09:52;;;;;;;4.60;2.30;;;23.40;56.20;;;;;;6019231;29;20475;-80
2022/09/01 03:12:53;;;;;;;6.78;2.17;;;23.40;56.20;;;;;;6020064;29;20042;-81
2022/09/01 03:15:56;;;;;;;2.15;1.80;;;23.30;56.20;;;;;;6019064;29;20098;-82
2022/09/01 03:18:57;;;;;;;3.60;2.15;;;23.30;56.20;;;;;;6020648;29;20050;-80
2022/09/01 03:21:58;;;;;;;5.05;2.08;;;23.30;56.20;;;;;;6016424;29;20042;-80
2022/09/01 03:25:00;;;;;;;5.30;2.10;;;23.30;56.20;;;;;;6007296;29;20058;-80
2022/09/01 03:28:03;;;;;;;3.75;2.13;;;23.20;56.10;;;;;;6010586;29;20129;-81
2022/09/01 03:31:06;;;;;;;3.55;2.17;;;23.20;56.00;;;;;;6028412;29;20034;-80
2022/09/01 03:34:09;;;;;;;4.60;2.78;;;23.10;56.10;;;;;;6011323;29;20167;-81
2022/09/01 03:37:16;;;;;;;2.78;2.40;;;23.10;56.30;;;;;;6008509;29;20056;-80
2022/09/01 03:40:18;;;;;;;2.95;2.03;;;23.10;56.40;;;;;;6011319;29;20038;-79
2022/09/01 03:43:23;;;;;;;6.20;3.05;;;23.10;56.50;;;;;;5996005;29;20079;-80
2022/09/01 03:46:25;;;;;;;3.92;3.00;;;23.00;56.50;;;;;;6010285;29;20372;-80
2022/09/01 03:49:27;;;;;;;6.55;3.33;;;23.00;56.70;;;;;;5996031;29;20041;-79
2022/09/01 03:52:29;;;;;;;5.22;3.38;;;23.00;56.80;;;;;;6006358;29;20064;-79
2022/09/01 03:55:33;;;;;;;7.05;3.20;;;23.00;56.90;;;;;;6012924;29;20037;-79
2022/09/01 03:58:34;;;;;;;8.02;3.15;;;23.00;57.00;;;;;;6011569;29;20041;-80
2022/09/01 04:01:38;;;;;;;6.10;3.40;;;23.00;57.20;;;;;;5989372;29;20050;-80
2022/09/01 04:04:39;;;;;;;9.95;3.42;;;23.00;57.30;;;;;;6014158;29;20042;-81
2022/09/01 04:07:40;;;;;;;5.80;3.08;;;22.90;57.30;;;;;;6023505;29;20046;-81
2022/09/01 04:10:50;;;;;;;8.73;3.30;;;23.00;57.40;;;;;;6011443;29;20130;-79
2022/09/01 04:13:52;;;;;;;12.32;3.30;;;22.90;57.40;;;;;;6010497;29;20042;-81
2022/09/01 04:20:14;;;;;;;3.33;2.20;;;22.90;57.20;;;;;;6018589;29;20061;-80
2022/09/01 04:23:25;;;;;;;8.10;2.47;;;22.90;57.20;;;;;;5995655;29;20037;-80
2022/09/01 04:26:30;;;;;;;6.53;2.45;;;22.80;57.20;;;;;;6007400;29;20106;-81
2022/09/01 04:29:31;;;;;;;4.25;2.85;;;22.80;57.20;;;;;;6025769;29;20030;-80
2022/09/01 04:32:34;;;;;;;4.10;2.63;;;22.80;57.20;;;;;;6009064;29;20034;-80
2022/09/01 04:35:38;;;;;;;10.75;2.90;;;22.80;57.30;;;;;;6024766;29;20084;-81
2022/09/01 04:38:39;;;;;;;13.95;5.43;;;22.80;57.40;;;;;;6007670;29;20125;-81
2022/09/01 04:41:44;;;;;;;4.50;3.03;;;22.70;57.40;;;;;;6012078;29;20071;-81
2022/09/01 04:44:47;;;;;;;8.10;2.47;;;22.70;57.50;;;;;;6011058;29;20452;-81
2022/09/01 04:47:48;;;;;;;5.47;2.60;;;22.70;57.70;;;;;;6007188;29;20123;-81
2022/09/01 04:50:51;;;;;;;6.18;3.05;;;22.70;57.70;;;;;;6010128;29;20049;-81
2022/09/01 04:54:01;;;;;;;7.00;2.53;;;22.70;57.80;;;;;;6011479;29;20046;-81
2022/09/01 04:57:07;;;;;;;7.68;3.10;;;22.70;57.90;;;;;;6016899;29;20380;-80
2022/09/01 05:00:21;;;;;;;4.53;3.03;;;22.60;57.90;;;;;;6010712;29;20086;-80
2022/09/01 05:03:23;;;;;;;4.63;2.92;;;22.60;57.80;;;;;;6007669;29;20042;-81
2022/09/01 05:06:58;;;;;;;4.45;2.78;;;22.50;57.80;;;;;;6009297;29;20070;-81
2022/09/01 05:10:01;;;;;;;5.68;3.40;;;22.50;57.80;;;;;;6008488;29;20372;-80
2022/09/01 05:13:22;;;;;;;9.25;3.30;;;22.50;57.90;;;;;;6005825;29;20460;-80
2022/09/01 05:16:24;;;;;;;6.35;2.85;;;22.40;57.90;;;;;;6006890;29;20404;-80
2022/09/01 05:19:28;;;;;;;5.43;3.42;;;22.40;57.90;;;;;;6002032;29;20041;-80
2022/09/01 05:22:32;;;;;;;3.88;2.90;;;22.40;57.90;;;;;;6020128;29;20433;-81
2022/09/01 05:25:40;;;;;;;5.53;3.05;;;22.50;57.90;;;;;;6008911;29;20048;-80
2022/09/01 05:28:52;;;;;;;8.38;3.00;;;22.50;57.90;;;;;;5989892;29;20042;-81
2022/09/01 05:31:54;;;;;;;8.52;3.50;;;22.50;57.80;;;;;;5992151;29;20393;-81
2022/09/01 05:34:55;;;;;;;6.03;2.75;;;22.50;57.70;;;;;;5990476;29;20420;-80
2022/09/01 05:37:58;;;;;;;6.68;3.75;;;22.50;57.70;;;;;;5992262;29;20050;-81
2022/09/01 05:41:03;;;;;;;6.05;3.17;;;22.60;57.70;;;;;;5992240;29;20056;-81
2022/09/01 05:44:06;;;;;;;9.80;3.25;;;22.60;57.60;;;;;;5977702;29;20053;-81
2022/09/01 05:47:10;;;;;;;8.40;3.63;;;22.60;57.60;;;;;;5990643;29;20037;-81
2022/09/01 05:50:15;;;;;;;5.50;3.30;;;22.60;57.50;;;;;;5975417;29;20478;-81
2022/09/01 05:53:16;;;;;;;4.68;3.55;;;22.60;57.40;;;;;;6005861;29;20034;-81
2022/09/01 05:56:18;;;;;;;5.95;3.30;;;22.60;57.40;;;;;;5995319;29;20034;-81
2022/09/01 05:59:20;;;;;;;4.75;3.17;;;22.60;57.50;;;;;;5981394;29;20067;-80
2022/09/01 06:02:25;;;;;;;8.85;3.90;;;22.60;57.60;;;;;;5992512;29;20061;-80
2022/09/01 06:05:34;;;;;;;7.05;3.45;;;22.60;57.60;;;;;;5975383;29;20128;-80
2022/09/01 06:08:36;;;;;;;;;;;22.60;57.50;;;;;;5971155;29;20046;-80
2022/09/01 06:11:38;;;;;;;5.15;3.25;;;22.60;57.60;;;;;;5981553;29;20415;-81
2022/09/01 06:14:45;;;;;;;9.23;3.80;;;22.50;57.50;;;;;;5982271;29;20052;-81
2022/09/01 06:17:52;;;;;;;9.73;4.32;;;22.60;57.60;;;;;;6000179;29;20049;-80
2022/09/01 06:20:56;;;;;;;5.40;3.50;;;22.60;57.80;;;;;;5990112;29;20125;-80
2022/09/01 06:23:58;;;;;;;5.32;3.50;;;22.60;57.80;;;;;;5976319;29;20077;-80
2022/09/01 06:27:00;;;;;;;8.63;3.92;;;22.60;57.70;;;;;;5978600;29;20118;-81
2022/09/01 06:30:01;;;;;;;8.13;3.63;;;22.70;57.70;;;;;;6003302;29;20053;-80
2022/09/01 06:33:08;;;;;;;11.90;3.38;;;22.70;57.60;;;;;;6018421;29;20034;-81
2022/09/01 06:36:10;;;;;;;6.13;3.40;;;22.70;57.40;;;;;;6013801;29;20073;-81
2022/09/01 06:39:18;;;;;;;6.32;3.42;;;22.80;57.30;;;;;;5991946;29;20133;-80
2022/09/01 06:42:22;;;;;;;10.23;3.70;;;22.90;57.20;;;;;;6003485;29;20038;-79
2022/09/01 06:45:29;;;;;;;5.43;3.17;;;22.90;57.10;;;;;;6001330;29;20446;-80
2022/09/01 06:48:30;;;;;;;5.78;3.30;;;23.00;57.10;;;;;;6001361;29;20044;-80
2022/09/01 06:51:40;;;;;;;12.15;3.65;;;23.00;56.90;;;;;;5996634;29;20101;-80
2022/09/01 06:54:42;;;;;;;11.23;3.72;;;23.10;56.90;;;;;;5992507;29;20049;-80
2022/09/01 06:57:51;;;;;;;6.90;3.83;;;23.20;56.80;;;;;;6009053;29;20072;-80
2022/09/01 07:00:52;;;;;;;5.63;3.20;;;23.20;56.60;;;;;;6011396;29;20493;-80
2022/09/01 07:03:55;;;;;;;6.35;3.33;;;23.30;56.50;;;;;;6018363;29;20086;-81
2022/09/01 07:07:08;;;;;;;5.22;3.38;;;23.40;56.30;;;;;;5995587;29;20495;-80
2022/09/01 07:10:28;;;;;;;7.32;3.30;;;23.40;55.90;;;;;;6011358;29;20125;-80
2022/09/01 07:13:38;;;;;;;;;;;23.40;55.70;;;;;;5981585;29;20476;-81
2022/09/01 07:16:39;;;;;;;6.43;2.70;;;23.40;55.70;;;;;;6008787;29;20022;-80
2022/09/01 07:19:42;;;;;;;10.05;3.50;;;23.50;55.50;;;;;;6009715;29;20484;-80
2022/09/01 07:22:43;;;;;;;8.43;2.90;;;23.60;55.30;;;;;;6009316;29;20034;-80
2022/09/01 07:25:46;;;;;;;4.35;2.65;;;23.60;55.10;;;;;;6015795;29;20050;-80
2022/09/01 07:28:57;;;;;;;8.75;3.38;;;23.70;55.00;;;;;;5973472;29;20041;-81
2022/09/01 07:31:58;;;;;;;4.85;3.28;;;23.70;54.70;;;;;;5993852;29;20041;-81
2022/09/01 07:34:59;;;;;;;7.32;4.22;;;23.80;54.60;;;;;;5991771;29;20076;-81
2022/09/01 07:38:03;;;;;;;8.90;4.40;;;23.90;54.50;;;;;;6000222;29;20117;-81
2022/09/01 07:41:03;;;;;;;7.45;2.67;;;24.00;54.40;;;;;;5993989;29;20038;-81
2022/09/01 07:44:31;;;;;;;4.93;2.83;;;24.10;54.20;;;;;;5985309;29;20042;-81
2022/09/01 07:47:51;;;;;;;5.22;3.55;;;24.20;53.80;;;;;;6000093;29;20045;-81
2022/09/01 07:50:56;;;;;;;6.88;3.20;;;24.30;53.60;;;;;;5980159;29;20124;-81
2022/09/01 07:54:01;;;;;;;7.45;3.63;;;24.30;53.30;;;;;;5997200;29;20042;-81
2022/09/01 07:57:03;;;;;;;9.65;4.03;;;24.30;53.30;;;;;;5994830;29;20045;-81
2022/09/01 08:00:10;;;;;;;6.47;3.55;;;24.50;53.30;;;;;;5994588;29;20121;-81
2022/09/01 08:03:16;;;;;;;10.73;4.18;;;24.50;53.00;;;;;;6009723;29;20038;-82
2022/09/01 08:06:23;;;;;;;6.55;2.92;;;24.70;53.00;;;;;;5977083;29;20029;-80
2022/09/01 08:09:26;;;;;;;5.82;4.20;;;24.80;52.80;;;;;;6009522;29;20030;-81
2022/09/01 08:12:28;;;;;;;6.60;3.95;;;24.90;52.40;;;;;;5973262;29;20034;-82
2022/09/01 08:15:29;;;;;;;8.43;2.92;;;25.00;52.10;;;;;;5995570;29;20504;-80
2022/09/01 08:18:30;;;;;;;9.13;3.30;;;25.10;51.90;;;;;;6002187;29;20049;-81
2022/09/01 08:21:33;;;;;;;7.63;3.10;;;25.20;51.70;;;;;;5993842;29;20053;-80
2022/09/01 08:24:40;;;;;;;3.92;2.70;;;25.40;51.60;;;;;;5994214;29;20038;-82
2022/09/01 08:27:42;;;;;;;5.85;3.17;;;25.50;51.30;;;;;;6003442;29;20049;-82
2022/09/01 08:30:44;;;;;;;10.13;2.58;;;25.70;50.90;;;;;;6014422;29;20037;-82
2022/09/01 08:33:47;;;;;;;4.25;2.80;;;25.80;50.70;;;;;;6006636;29;20110;-81
2022/09/01 08:36:49;;;;;;;5.97;3.67;;;25.90;50.30;;;;;;6006829;29;20046;-82
2022/09/01 08:39:50;;;;;;;4.88;3.00;;;26.00;50.10;;;;;;6007536;29;20061;-82
2022/09/01 08:43:19;;;;;;;5.40;3.15;;;26.20;49.90;;;;;;6009432;29;20353;-80
2022/09/01 08:46:47;;;;;;;6.53;3.83;;;26.30;49.30;;;;;;6005749;29;20144;-82
2022/09/01 08:49:51;;;;;;;6.18;3.58;;;26.30;49.10;;;;;;6003666;29;20038;-81
2022/09/01 08:53:08;;;;;;;7.20;4.25;;;26.40;48.90;;;;;;6009769;29;20531;-82
2022/09/01 08:56:11;;;;;;;8.55;3.60;;;26.40;49.00;;;;;;6006032;29;20125;-81
2022/09/01 08:59:13;;;;;;;6.97;3.28;;;26.50;48.70;;;;;;6005909;29;20057;-80
2022/09/01 09:03:12;;;;;;;5.15;3.28;;;26.50;48.70;;;;;;6005500;29;20050;-81
2022/09/01 09:06:20;;;;;;;;;;;26.60;48.70;;;;;;5888571;30;20572;-81
2022/09/01 09:09:33;;;;;;;10.23;3.63;;;26.70;48.50;;;;;;5912832;29;20083;-81
2022/09/01 09:13:01;;;;;;;6.32;3.30;;;26.80;48.50;;;;;;5916333;30;20141;-81
2022/09/01 09:16:10;;;;;;;7.28;3.90;;;26.80;48.50;;;;;;5897927;30;20134;-82
2022/09/01 09:19:18;;;;;;;5.88;3.28;;;26.90;48.50;;;;;;5919723;29;20404;-81
2022/09/01 09:22:19;;;;;;;6.25;4.00;;;26.90;48.30;;;;;;5911455;30;20128;-80
2022/09/01 09:25:23;;;;;;;9.10;4.30;;;27.00;48.30;;;;;;5903946;29;20106;-81
2022/09/01 09:28:23;;;;;;;6.70;3.50;;;27.00;48.20;;;;;;5909408;30;20120;-81
2022/09/01 09:31:36;;;;;;;9.43;4.70;;;27.00;48.20;;;;;;5891024;30;20069;-81
2022/09/01 09:34:40;;;;;;;8.68;5.07;;;27.00;48.30;;;;;;5898846;30;20036;-82
2022/09/01 09:37:41;;;;;;;5.53;3.00;;;27.00;48.20;;;;;;5903660;30;20044;-80
2022/09/01 09:40:59;;;;;;;9.23;3.72;;;27.00;48.20;;;;;;5928125;30;20519;-82
2022/09/01 09:44:10;;;;;;;12.50;5.10;;;27.10;48.40;;;;;;5993963;29;20073;-81
2022/09/01 09:47:37;;;;;;;5.88;3.45;;;27.20;48.20;;;;;;6004955;29;20109;-82
2022/09/01 09:50:42;;;;;;;8.02;4.32;;;27.30;48.10;;;;;;6005080;29;20030;-82
2022/09/01 09:53:43;;;;;;;14.57;3.97;;;27.50;47.80;;;;;;6007446;29;20052;-83
2022/09/01 09:56:46;;;;;;;9.57;3.53;;;27.50;47.40;;;;;;6007404;29;20085;-82
2022/09/01 09:59:55;;;;;;;7.65;3.13;;;27.40;47.30;;;;;;6003637;29;20120;-81
2022/09/01 10:03:07;;;;;;;5.10;3.13;;;27.40;47.40;;;;;;6007992;29;20120;-84
2022/09/01 10:06:29;;;;;;;3.97;2.90;;;27.50;47.70;;;;;;6000916;29;20370;-82
2022/09/01 10:09:29;;;;;;;8.23;3.95;;;27.40;47.60;;;;;;6005477;29;20433;-83
2022/09/01 10:12:32;;;;;;;8.63;3.15;;;27.50;47.40;;;;;;6010481;29;20069;-82
2022/09/01 10:15:34;;;;;;;5.55;3.65;;;27.60;47.30;;;;;;5994673;29;20034;-83
2022/09/01 10:18:43;;;;;;;3.17;2.53;;;27.60;47.20;;;;;;6006354;29;20082;-81
2022/09/01 10:21:45;;;;;;;7.65;3.78;;;27.70;47.10;;;;;;6008669;29;20050;-83
2022/09/01 10:24:47;;;;;;;6.15;3.92;;;27.80;47.00;;;;;;6008935;29;20124;-84
2022/09/01 10:27:54;;;;;;;6.70;3.33;;;28.00;47.00;;;;;;6011527;29;20072;-84
2022/09/01 10:30:57;;;;;;;7.00;3.05;;;28.10;46.80;;;;;;6007772;29;20050;-81
2022/09/01 10:34:02;;;;;;;6.22;3.55;;;28.30;46.60;;;;;;6019071;29;20045;-83
2022/09/01 10:37:05;;;;;;;5.07;3.20;;;28.50;46.40;;;;;;6008085;29;20096;-82
2022/09/01 10:40:37;;;;;;;5.60;3.22;;;28.50;46.10;;;;;;6025145;29;20038;-83
2022/09/01 10:43:45;;;;;;;10.50;2.92;;;28.60;46.40;;;;;;6006075;29;20034;-81
2022/09/01 10:46:47;;;;;;;3.85;2.72;;;28.90;45.20;;;;;;6015070;29;20054;-81
2022/09/01 10:49:48;;;;;;;6.20;2.80;;;29.10;44.50;;;;;;6001870;29;20077;-82
2022/09/01 10:52:55;;;;;;;4.70;2.65;;;29.40;43.50;;;;;;5988587;29;20057;-83
2022/09/01 10:56:01;;;;;;;4.65;2.58;;;29.80;43.00;;;;;;5997056;29;20045;-82
2022/09/01 10:59:05;;;;;;;4.03;2.60;;;30.10;41.80;;;;;;6002806;29;20154;-82
2022/09/01 11:02:15;;;;;;;4.60;2.22;;;30.30;41.20;;;;;;6014330;29;20369;-81
2022/09/01 11:05:17;;;;;;;8.10;2.40;;;30.60;40.90;;;;;;6008545;29;20121;-81
2022/09/01 11:08:38;;;;;;;12.20;2.60;;;30.80;40.50;;;;;;6006266;29;20138;-82
2022/09/01 11:11:44;;;;;;;8.07;2.80;;;31.00;40.00;;;;;;6014450;29;20053;-80
2022/09/01 11:14:59;;;;;;;3.85;2.50;;;31.20;39.40;;;;;;6012750;29;20488;-83
2022/09/01 11:18:01;;;;;;;2.80;2.30;;;31.30;38.50;;;;;;6011918;29;20053;-81
2022/09/01 11:21:29;;;;;;;4.00;2.38;;;31.40;38.40;;;;;;6015206;29;20066;-83
2022/09/01 11:24:41;;;;;;;5.77;2.43;;;31.60;38.50;;;;;;6007552;29;20045;-83
2022/09/01 11:27:48;;;;;;;8.40;3.00;;;31.90;37.90;;;;;;6014385;29;20361;-82
2022/09/01 11:30:57;;;;;;;11.77;2.97;;;32.10;37.50;;;;;;5991205;29;20054;-81
2022/09/01 11:34:17;;;;;;;5.55;2.85;;;32.10;37.40;;;;;;6006824;29;20030;-82
2022/09/01 11:37:23;;;;;;;4.05;2.60;;;32.10;37.10;;;;;;6009795;29;20058;-82
2022/09/01 11:40:31;;;;;;;3.42;2.45;;;32.00;37.50;;;;;;6009352;29;20066;-82
2022/09/01 11:43:32;;;;;;;11.02;2.50;;;32.10;37.30;;;;;;5994992;29;20554;-81
2022/09/01 11:46:35;;;;;;;6.03;2.70;;;32.30;36.90;;;;;;6009640;29;20113;-81
2022/09/01 11:49:44;;;;;;;4.55;2.75;;;32.60;36.40;;;;;;6010150;29;20034;-82
2022/09/01 11:52:57;;;;;;;8.50;2.85;;;32.90;36.30;;;;;;5991657;29;20170;-81
2022/09/01 11:56:24;;;;;;;18.27;2.60;;;33.30;36.00;;;;;;6012242;29;20042;-81
2022/09/01 11:59:36;;;;;;;5.93;2.28;;;33.70;35.20;;;;;;6013216;29;20046;-81
2022/09/01 12:02:46;;;;;;;8.02;2.80;;;34.20;34.50;;;;;;5996598;29;20038;-81
2022/09/01 12:05:53;;;;;;;3.50;1.98;;;34.70;33.90;;;;;;5993825;29;20465;-82
2022/09/01 12:09:03;;;;;;;8.77;2.83;;;35.00;32.80;;;;;;5995436;29;20052;-81
2022/09/01 12:12:07;;;;;;;9.63;2.40;;;35.40;32.60;;;;;;5981099;29;20056;-81
2022/09/01 12:15:21;;;;;;;2.42;2.08;;;35.80;31.90;;;;;;5994824;29;20045;-81
2022/09/01 12:18:33;;;;;;;7.63;2.60;;;36.30;31.10;;;;;;5993958;29;20045;-81
2022/09/01 12:21:54;;;;;;;3.17;2.40;;;36.70;30.50;;;;;;5977415;29;20042;-80
2022/09/01 12:24:55;;;;;;;6.22;2.22;;;37.10;30.00;;;;;;6006517;29;20049;-81
2022/09/01 12:28:02;;;;;;;4.20;1.92;;;37.60;29.20;;;;;;6010526;29;20074;-80
2022/09/01 12:31:06;;;;;;;7.18;2.80;;;38.00;28.70;;;;;;6026673;29;20045;-81
2022/09/01 12:34:25;;;;;;;5.65;2.47;;;38.50;28.80;;;;;;6011134;29;20038;-81
2022/09/01 12:37:26;;;;;;;2.28;1.80;;;39.10;27.80;;;;;;6009122;29;20425;-80
2022/09/01 12:40:32;;;;;;;2.72;2.15;;;39.60;27.00;;;;;;6006730;29;20042;-81
2022/09/01 12:43:38;;;;;;;2.38;2.10;;;39.80;26.60;;;;;;6013416;29;20381;-83
2022/09/01 12:46:42;;;;;;;3.55;1.83;;;40.00;26.10;;;;;;5996950;29;20038;-81
2022/09/01 12:49:46;;;;;;;5.05;1.83;;;40.10;25.70;;;;;;6005553;29;20524;-81
2022/09/01 12:52:50;;;;;;;3.15;1.90;;;40.40;25.80;;;;;;6018976;29;20053;-80
2022/09/01 12:56:25;;;;;;;2.30;1.83;;;40.70;25.00;;;;;;6027292;29;20061;-81
2022/09/01 12:59:26;;;;;;;1.88;1.73;;;41.00;24.50;;;;;;5910237;30;20127;-81
2022/09/01 13:03:05;;;;;;;5.72;1.88;;;41.30;24.20;;;;;;5909417;30;20459;-81
2022/09/01 13:06:06;;;;;;;2.47;1.63;;;41.60;23.80;;;;;;5917532;29;20095;-82
2022/09/01 13:09:07;;;;;;;1.52;1.40;;;42.20;23.30;;;;;;5909054;30;20437;-81
2022/09/01 13:12:16;;;;;;;4.20;1.70;;;42.50;22.70;;;;;;5890524;30;20043;-77
2022/09/01 13:15:17;;;;;;;2.00;1.75;;;42.70;22.50;;;;;;5902405;29;20471;-82
2022/09/01 13:18:20;;;;;;;2.15;1.50;;;43.10;22.10;;;;;;5918947;30;20120;-81
2022/09/01 13:21:21;;;;;;;3.67;1.80;;;43.10;21.90;;;;;;5919260;30;20579;-81
2022/09/01 13:24:22;;;;;;;4.13;1.63;;;43.30;21.70;;;;;;5892976;30;20189;-83
2022/09/01 13:27:23;;;;;;;2.33;1.63;;;43.40;21.60;;;;;;5889080;30;20051;-82
2022/09/01 13:30:28;;;;;;;2.92;1.67;;;43.60;21.50;;;;;;5907331;30;20039;-85
2022/09/01 13:33:31;;;;;;;3.25;1.80;;;43.70;21.20;;;;;;5918690;30;20485;-83
2022/09/01 13:36:32;;;;;;;2.30;1.77;;;43.90;21.20;;;;;;5970541;29;20042;-82
2022/09/01 13:39:33;;;;;;;3.83;1.75;;;44.10;20.90;;;;;;6009844;29;20146;-85
2022/09/01 13:42:33;;;;;;;4.18;1.70;;;44.20;20.70;;;;;;6009602;29;20097;-85
2022/09/01 13:45:35;;;;;;;1.75;1.38;;;44.40;20.50;;;;;;6008527;29;20129;-86
2022/09/01 13:48:37;;;;;;;2.03;1.70;;;44.40;20.40;;;;;;6004771;29;20057;-86
2022/09/01 13:51:39;;;;;;;2.60;1.55;;;44.40;20.40;;;;;;6017605;29;20064;-86
2022/09/01 13:54:43;;;;;;;2.60;1.80;;;44.60;20.40;;;;;;6015335;29;20460;-85
2022/09/01 13:57:44;;;;;;;3.60;2.22;;;44.70;20.10;;;;;;5991726;29;20099;-86
2022/09/01 14:00:46;;;;;;;1.98;1.77;;;44.90;20.10;;;;;;6008668;29;20064;-86
2022/09/01 14:03:48;;;;;;;2.95;1.60;;;45.00;20.00;;;;;;6007470;29;20472;-86
2022/09/01 14:06:50;;;;;;;1.88;1.60;;;44.40;20.10;;;;;;5991260;29;20068;-86
2022/09/01 14:09:51;;;;;;;1.70;1.60;;;43.10;20.60;;;;;;6009297;29;20133;-86
2022/09/01 14:12:52;;;;;;;1.88;1.40;;;41.90;21.30;;;;;;6018600;29;20046;-86
2022/09/01 14:15:53;;;;;;;6.78;1.70;;;40.90;21.90;;;;;;6007755;29;20106;-87
2022/09/01 14:18:54;;;;;;;1.58;1.48;;;40.00;22.30;;;;;;6015076;29;20521;-86
2022/09/01 14:21:56;;;;;;;3.00;1.70;;;38.80;22.80;;;;;;6009110;29;20053;-86
2022/09/01 14:24:58;;;;;;;3.20;1.58;;;37.70;23.70;;;;;;5993444;29;20045;-86
2022/09/01 14:28:00;;;;;;;2.97;1.27;;;36.90;24.30;;;;;;5995202;29;20054;-86
2022/09/01 14:31:08;;;;;;;4.65;1.70;;;36.20;24.90;;;;;;5997887;29;20098;-86
2022/09/01 14:34:10;;;;;;;1.73;1.60;;;35.50;25.40;;;;;;6008360;29;20125;-85
2022/09/01 14:37:11;;;;;;;3.28;1.70;;;35.10;25.90;;;;;;5994258;29;20499;-86
2022/09/01 14:40:17;;;;;;;1.30;1.20;;;34.60;26.20;;;;;;5999437;29;20034;-84
2022/09/01 14:43:18;;;;;;;7.78;1.80;;;34.30;26.50;;;;;;5991215;29;20031;-86
2022/09/01 14:46:19;;;;;;;1.40;1.20;;;34.00;26.60;;;;;;5995180;29;20057;-86
2022/09/01 14:49:20;;;;;;;7.65;1.45;;;33.70;26.80;;;;;;5998688;29;20472;-86
2022/09/01 14:52:21;;;;;;;1.70;1.38;;;33.50;27.10;;;;;;6000265;29;20049;-85
2022/09/01 14:55:24;;;;;;;5.22;1.80;;;33.30;27.30;;;;;;5972349;29;20143;-85
2022/09/01 14:58:27;;;;;;;3.33;1.40;;;33.20;27.60;;;;;;6002277;29;20042;-85
2022/09/01 15:01:28;;;;;;;2.00;1.40;;;33.10;27.70;;;;;;5986669;29;20150;-84
2022/09/01 15:04:30;;;;;;;2.13;1.50;;;33.00;27.80;;;;;;5994790;29;20057;-85
2022/09/01 15:07:33;;;;;;;1.65;1.48;;;33.00;27.90;;;;;;5999885;29;20042;-86
2022/09/01 15:10:35;;;;;;;2.85;1.50;;;32.90;28.00;;;;;;5999935;29;20048;-85
2022/09/01 15:13:39;;;;;;;5.47;1.55;;;32.90;28.10;;;;;;5990462;29;20042;-86
2022/09/01 15:16:40;;;;;;;2.08;1.80;;;32.90;28.20;;;;;;5988406;29;20049;-87
2022/09/01 15:19:41;;;;;;;5.32;1.65;;;32.80;28.70;;;;;;6002544;29;20041;-85
2022/09/01 15:22:42;;;;;;;1.83;1.50;;;32.80;28.30;;;;;;6013324;29;20030;-86
2022/09/01 15:25:44;;;;;;;4.75;1.73;;;32.80;28.80;;;;;;5985784;29;20095;-85
2022/09/01 15:28:46;;;;;;;3.60;1.70;;;32.80;28.30;;;;;;5994173;29;20085;-85
2022/09/01 15:31:49;;;;;;;2.58;1.58;;;32.80;28.30;;;;;;6005693;29;20075;-85
2022/09/01 15:34:50;;;;;;;7.82;1.63;;;32.80;28.30;;;;;;5992959;29;20437;-85
2022/09/01 15:37:51;;;;;;;2.90;1.45;;;32.80;28.20;;;;;;5997588;29;20057;-87
2022/09/01 15:40:54;;;;;;;1.50;1.35;;;32.80;28.00;;;;;;6002400;29;20619;-85
2022/09/01 15:43:56;;;;;;;3.17;1.83;;;32.80;28.10;;;;;;5994174;29;20046;-86
2022/09/01 15:46:57;;;;;;;2.70;1.50;;;32.70;28.60;;;;;;5995814;29;20398;-86
2022/09/01 15:49:58;;;;;;;2.53;1.70;;;32.70;27.90;;;;;;5971178;29;20484;-85
2022/09/01 15:53:07;;;;;;;3.30;1.63;;;32.70;27.90;;;;;;6005100;29;20030;-85
2022/09/01 15:56:09;;;;;;;1.92;1.52;;;32.70;27.80;;;;;;5995626;29;20539;-85
2022/09/01 15:59:11;;;;;;;1.80;1.42;;;32.70;27.80;;;;;;6014021;29;20046;-86
2022/09/01 16:02:14;;;;;;;5.22;1.27;;;32.90;27.80;;;;;;6012503;29;20034;-85
2022/09/01 16:05:16;;;;;;;2.35;1.40;;;33.80;27.20;;;;;;5997385;29;20372;-86
2022/09/01 16:08:18;;;;;;;2.25;1.52;;;35.10;25.80;;;;;;6006542;29;20101;-86
2022/09/01 16:11:23;;;;;;;1.83;1.40;;;36.40;24.80;;;;;;6006975;29;20071;-85